createdAt,value
2023-04-16T00:00:11.540Z,94258.00
2023-04-16T00:01:11.540Z,94258.00
2023-04-16T00:02:11.659Z,94262.00
2023-04-16T00:03:11.711Z,94258.00
2023-04-16T00:04:11.618Z,94260.00
2023-04-16T00:05:11.532Z,94260.00
2023-04-16T00:06:11.547Z,94260.00
2023-04-16T00:07:11.531Z,94258.00
2023-04-16T00:08:11.559Z,94258.00
2023-04-16T00:09:11.657Z,94258.00
2023-04-16T00:10:11.540Z,94260.00
2023-04-16T00:11:11.551Z,94260.00
2023-04-16T00:12:11.532Z,94262.00
2023-04-16T00:13:11.535Z,94264.00
2023-04-16T00:14:11.529Z,94262.00
2023-04-16T00:15:11.558Z,94264.00
2023-04-16T00:16:11.546Z,94264.00
2023-04-16T00:17:11.599Z,94264.00
2023-04-16T00:18:11.551Z,94264.00
2023-04-16T00:19:11.622Z,94264.00
2023-04-16T00:20:11.552Z,94266.00
2023-04-16T00:21:11.554Z,94266.00
2023-04-16T00:22:11.531Z,94268.00
2023-04-16T00:23:11.532Z,94268.00
2023-04-16T00:24:11.543Z,94268.00
2023-04-16T00:25:11.537Z,94266.00
2023-04-16T00:26:11.545Z,94266.00
2023-04-16T00:27:11.530Z,94266.00
2023-04-16T00:28:11.544Z,94266.00
2023-04-16T00:29:11.759Z,94264.00
2023-04-16T00:30:11.544Z,94264.00
2023-04-16T00:31:11.548Z,94264.00
2023-04-16T00:32:11.539Z,94264.00
2023-04-16T00:33:11.545Z,94262.00
2023-04-16T00:34:11.561Z,94262.00
2023-04-16T00:35:11.544Z,94264.00
2023-04-16T00:36:11.564Z,94266.00
2023-04-16T00:37:11.557Z,94264.00
2023-04-16T00:38:11.561Z,94264.00
2023-04-16T00:39:11.641Z,94266.00
2023-04-16T00:40:11.571Z,94266.00
2023-04-16T00:41:11.577Z,94266.00
2023-04-16T00:42:11.576Z,94266.00
2023-04-16T00:43:11.590Z,94268.00
2023-04-16T00:44:11.591Z,94268.00
2023-04-16T00:45:11.581Z,94270.00
2023-04-16T00:46:11.646Z,94272.00
2023-04-16T00:47:11.589Z,94272.00
2023-04-16T00:48:11.595Z,94270.00
2023-04-16T00:49:11.579Z,94274.00
2023-04-16T00:50:11.595Z,94274.00
2023-04-16T00:51:11.593Z,94276.00
2023-04-16T00:52:11.594Z,94272.00
2023-04-16T00:53:11.613Z,94274.00
2023-04-16T00:54:11.606Z,94274.00
2023-04-16T00:55:11.590Z,94274.00
2023-04-16T00:56:11.606Z,94274.00
2023-04-16T00:57:11.608Z,94274.00
2023-04-16T00:58:11.618Z,94276.00
2023-04-16T00:59:11.700Z,94274.00
2023-04-16T01:00:11.607Z,94274.00
2023-04-16T01:01:11.676Z,94276.00
2023-04-16T01:02:11.664Z,94277.00
2023-04-16T01:03:11.728Z,94276.00
2023-04-16T01:04:11.652Z,94277.00
2023-04-16T01:05:11.620Z,94277.00
2023-04-16T01:06:11.619Z,94277.00
2023-04-16T01:07:11.613Z,94276.00
2023-04-16T01:08:11.648Z,94277.00
2023-04-16T01:09:11.753Z,94277.00
2023-04-16T01:10:11.627Z,94277.00
2023-04-16T01:11:11.656Z,94277.00
2023-04-16T01:12:11.611Z,94277.00
2023-04-16T01:13:11.638Z,94277.00
2023-04-16T01:14:11.607Z,94279.00
2023-04-16T01:15:11.636Z,94276.00
2023-04-16T01:16:11.660Z,94276.00
2023-04-16T01:17:11.604Z,94276.00
2023-04-16T01:18:11.617Z,94277.00
2023-04-16T01:19:11.926Z,94277.00
2023-04-16T01:20:11.602Z,94277.00
2023-04-16T01:21:11.583Z,94277.00
2023-04-16T01:22:11.582Z,94277.00
2023-04-16T01:23:11.624Z,94277.00
2023-04-16T01:24:11.590Z,94279.00
2023-04-16T01:25:11.596Z,94279.00
2023-04-16T01:26:11.599Z,94281.00
2023-04-16T01:27:11.588Z,94279.00
2023-04-16T01:28:11.593Z,94281.00
2023-04-16T01:29:11.621Z,94279.00
2023-04-16T01:30:11.597Z,94277.00
2023-04-16T01:31:11.614Z,94279.00
2023-04-16T01:32:11.594Z,94279.00
2023-04-16T01:33:11.603Z,94279.00
2023-04-16T01:34:11.577Z,94279.00
2023-04-16T01:35:11.562Z,94283.00
2023-04-16T01:36:11.569Z,94283.00
2023-04-16T01:37:11.558Z,94281.00
2023-04-16T01:38:11.580Z,94285.00
2023-04-16T01:39:11.574Z,94283.00
2023-04-16T01:40:11.567Z,94281.00
2023-04-16T01:41:11.547Z,94285.00
2023-04-16T01:42:11.559Z,94283.00
2023-04-16T01:43:11.549Z,94285.00
2023-04-16T01:44:11.563Z,94289.00
2023-04-16T01:45:11.532Z,94291.00
2023-04-16T01:46:11.569Z,94293.00
2023-04-16T01:47:11.525Z,94291.00
2023-04-16T01:48:11.535Z,94289.00
2023-04-16T01:49:11.788Z,94295.00
2023-04-16T01:50:11.527Z,94295.00
2023-04-16T01:51:11.519Z,94295.00
2023-04-16T01:52:11.532Z,94295.00
2023-04-16T01:53:11.525Z,94295.00
2023-04-16T01:54:11.540Z,94295.00
2023-04-16T01:55:11.514Z,94299.00
2023-04-16T01:56:11.523Z,94297.00
2023-04-16T01:57:11.548Z,94297.00
2023-04-16T01:58:11.548Z,94299.00
2023-04-16T01:59:11.711Z,94297.00
2023-04-16T02:00:11.509Z,94299.00
2023-04-16T02:01:11.564Z,94297.00
2023-04-16T02:02:11.609Z,94295.00
2023-04-16T02:03:11.662Z,94295.00
2023-04-16T02:04:11.530Z,94295.00
2023-04-16T02:05:11.507Z,94295.00
2023-04-16T02:06:11.559Z,94295.00
2023-04-16T02:07:11.589Z,94297.00
2023-04-16T02:08:11.570Z,94299.00
2023-04-16T02:09:11.762Z,94301.00
2023-04-16T02:10:11.589Z,94303.00
2023-04-16T02:11:11.590Z,94301.00
2023-04-16T02:12:11.597Z,94303.00
2023-04-16T02:13:11.586Z,94303.00
2023-04-16T02:14:11.595Z,94303.00
2023-04-16T02:15:11.596Z,94305.00
2023-04-16T02:16:11.655Z,94305.00
2023-04-16T02:17:11.621Z,94305.00
2023-04-16T02:18:11.624Z,94305.00
2023-04-16T02:19:11.672Z,94307.00
2023-04-16T02:20:11.609Z,94307.00
2023-04-16T02:21:11.594Z,94307.00
2023-04-16T02:22:11.602Z,94309.00
2023-04-16T02:23:11.617Z,94311.00
2023-04-16T02:24:11.598Z,94309.00
2023-04-16T02:25:11.618Z,94311.00
2023-04-16T02:26:11.609Z,94311.00
2023-04-16T02:27:11.622Z,94313.00
2023-04-16T02:28:11.635Z,94311.00
2023-04-16T02:29:11.810Z,94309.00
2023-04-16T02:30:11.606Z,94307.00
2023-04-16T02:31:11.617Z,94309.00
2023-04-16T02:32:11.662Z,94311.00
2023-04-16T02:33:11.658Z,94311.00
2023-04-16T02:34:11.630Z,94311.00
2023-04-16T02:35:11.594Z,94313.00
2023-04-16T02:36:11.585Z,94313.00
2023-04-16T02:37:11.599Z,94309.00
2023-04-16T02:38:11.643Z,94313.00
2023-04-16T02:39:11.740Z,94313.00
2023-04-16T02:40:11.588Z,94313.00
2023-04-16T02:41:11.610Z,94313.00
2023-04-16T02:42:11.584Z,94315.00
2023-04-16T02:43:11.626Z,94317.00
2023-04-16T02:44:11.601Z,94317.00
2023-04-16T02:45:11.616Z,94315.00
2023-04-16T02:46:11.660Z,94319.00
2023-04-16T02:47:11.599Z,94317.00
2023-04-16T02:48:11.623Z,94321.00
2023-04-16T02:49:11.793Z,94319.00
2023-04-16T02:50:11.607Z,94321.00
2023-04-16T02:51:11.625Z,94323.00
2023-04-16T02:52:12.478Z,94324.00
2023-04-16T02:53:11.646Z,94323.00
2023-04-16T02:54:11.641Z,94323.00
2023-04-16T02:55:11.619Z,94323.00
2023-04-16T02:56:11.622Z,94324.00
2023-04-16T02:57:11.635Z,94323.00
2023-04-16T02:58:11.675Z,94324.00
2023-04-16T02:59:11.742Z,94323.00
2023-04-16T03:00:11.640Z,94324.00
2023-04-16T03:01:11.675Z,94324.00
2023-04-16T03:02:11.678Z,94324.00
2023-04-16T03:03:11.732Z,94326.00
2023-04-16T03:04:11.839Z,94324.00
2023-04-16T03:05:11.766Z,94328.00
2023-04-16T03:06:11.813Z,94328.00
2023-04-16T03:07:11.843Z,94326.00
2023-04-16T03:08:11.856Z,94326.00
2023-04-16T03:09:11.966Z,94328.00
2023-04-16T03:10:11.831Z,94328.00
2023-04-16T03:11:11.837Z,94328.00
2023-04-16T03:12:11.817Z,94328.00
2023-04-16T03:13:11.859Z,94328.00
2023-04-16T03:14:11.840Z,94330.00
2023-04-16T03:15:11.849Z,94330.00
2023-04-16T03:16:11.894Z,94330.00
2023-04-16T03:17:11.825Z,94330.00
2023-04-16T03:18:11.821Z,94330.00
2023-04-16T03:19:12.081Z,94332.00
2023-04-16T03:20:11.821Z,94332.00
2023-04-16T03:21:11.837Z,94332.00
2023-04-16T03:22:11.841Z,94332.00
2023-04-16T03:23:11.855Z,94334.00
2023-04-16T03:24:11.823Z,94334.00
2023-04-16T03:25:11.824Z,94332.00
2023-04-16T03:26:11.811Z,94338.00
2023-04-16T03:27:11.830Z,94336.00
2023-04-16T03:28:11.816Z,94338.00
2023-04-16T03:29:11.861Z,94338.00
2023-04-16T03:30:11.838Z,94336.00
2023-04-16T03:31:11.852Z,94336.00
2023-04-16T03:32:11.816Z,94334.00
2023-04-16T03:33:11.860Z,94334.00
2023-04-16T03:34:11.916Z,94334.00
2023-04-16T03:35:11.969Z,94336.00
2023-04-16T03:36:12.027Z,94336.00
2023-04-16T03:37:12.168Z,94336.00
2023-04-16T03:38:12.078Z,94336.00
2023-04-16T03:39:12.113Z,94340.00
2023-04-16T03:40:12.024Z,94340.00
2023-04-16T03:41:12.041Z,94338.00
2023-04-16T03:42:12.048Z,94336.00
2023-04-16T03:43:12.059Z,94338.00
2023-04-16T03:44:12.031Z,94338.00
2023-04-16T03:45:12.053Z,94338.00
2023-04-16T03:46:12.066Z,94336.00
2023-04-16T03:47:12.047Z,94338.00
2023-04-16T03:48:12.052Z,94342.00
2023-04-16T03:49:12.316Z,94344.00
2023-04-16T03:50:12.052Z,94346.00
2023-04-16T03:51:12.056Z,94346.00
2023-04-16T03:52:12.049Z,94346.00
2023-04-16T03:53:12.085Z,94350.00
2023-04-16T03:54:12.055Z,94346.00
2023-04-16T03:55:12.035Z,94348.00
2023-04-16T03:56:12.045Z,94350.00
2023-04-16T03:57:12.064Z,94350.00
2023-04-16T03:58:12.089Z,94348.00
2023-04-16T03:59:12.053Z,94350.00
2023-04-16T04:00:12.055Z,94350.00
2023-04-16T04:01:12.050Z,94352.00
2023-04-16T04:02:12.135Z,94352.00
2023-04-16T04:03:12.198Z,94352.00
2023-04-16T04:04:12.214Z,94352.00
2023-04-16T04:05:12.075Z,94358.00
2023-04-16T04:06:12.069Z,94354.00
2023-04-16T04:07:12.089Z,94356.00
2023-04-16T04:08:12.106Z,94354.00
2023-04-16T04:09:12.117Z,94356.00
2023-04-16T04:10:12.086Z,94356.00
2023-04-16T04:11:12.079Z,94356.00
2023-04-16T04:12:12.094Z,94356.00
2023-04-16T04:13:12.104Z,94358.00
2023-04-16T04:14:12.101Z,94358.00
2023-04-16T04:15:12.091Z,94360.00
2023-04-16T04:16:12.119Z,94360.00
2023-04-16T04:17:12.134Z,94364.00
2023-04-16T04:18:12.117Z,94366.00
2023-04-16T04:19:12.136Z,94364.00
2023-04-16T04:20:12.115Z,94368.00
2023-04-16T04:21:12.116Z,94368.00
2023-04-16T04:22:12.132Z,94368.00
2023-04-16T04:23:12.146Z,94368.00
2023-04-16T04:24:12.148Z,94370.00
2023-04-16T04:25:12.145Z,94368.00
2023-04-16T04:26:12.176Z,94368.00
2023-04-16T04:27:12.165Z,94368.00
2023-04-16T04:28:12.171Z,94368.00
2023-04-16T04:29:12.265Z,94370.00
2023-04-16T04:30:12.157Z,94373.00
2023-04-16T04:31:12.178Z,94373.00
2023-04-16T04:32:12.181Z,94375.00
2023-04-16T04:33:12.198Z,94379.00
2023-04-16T04:34:12.173Z,94377.00
2023-04-16T04:35:12.184Z,94377.00
2023-04-16T04:36:12.220Z,94377.00
2023-04-16T04:37:12.202Z,94375.00
2023-04-16T04:38:13.646Z,94375.00
2023-04-16T04:39:12.183Z,94375.00
2023-04-16T04:40:12.211Z,94373.00
2023-04-16T04:41:12.199Z,94377.00
2023-04-16T04:42:12.174Z,94377.00
2023-04-16T04:43:12.186Z,94379.00
2023-04-16T04:44:12.173Z,94379.00
2023-04-16T04:45:12.151Z,94381.00
2023-04-16T04:46:12.245Z,94383.00
2023-04-16T04:47:12.151Z,94385.00
2023-04-16T04:48:12.142Z,94385.00
2023-04-16T04:49:12.219Z,94385.00
2023-04-16T04:50:12.143Z,94393.00
2023-04-16T04:51:12.129Z,94395.00
2023-04-16T04:52:12.120Z,94397.00
2023-04-16T04:53:12.143Z,94397.00
2023-04-16T04:54:12.106Z,94397.00
2023-04-16T04:55:12.109Z,94397.00
2023-04-16T04:56:13.076Z,94399.00
2023-04-16T04:57:12.073Z,94399.00
2023-04-16T04:58:12.074Z,94399.00
2023-04-16T04:59:12.171Z,94399.00
2023-04-16T05:00:12.054Z,94401.00
2023-04-16T05:01:12.079Z,94397.00
2023-04-16T05:02:12.127Z,94397.00
2023-04-16T05:03:12.147Z,94399.00
2023-04-16T05:04:12.114Z,94397.00
2023-04-16T05:05:12.094Z,94397.00
2023-04-16T05:06:12.043Z,94397.00
2023-04-16T05:07:12.028Z,94399.00
2023-04-16T05:08:12.004Z,94399.00
2023-04-16T05:09:12.089Z,94401.00
2023-04-16T05:10:11.999Z,94399.00
2023-04-16T05:11:12.009Z,94399.00
2023-04-16T05:12:11.999Z,94399.00
2023-04-16T05:13:11.997Z,94397.00
2023-04-16T05:14:11.994Z,94397.00
2023-04-16T05:15:12.013Z,94397.00
2023-04-16T05:16:12.000Z,94397.00
2023-04-16T05:17:11.960Z,94401.00
2023-04-16T05:18:11.950Z,94401.00
2023-04-16T05:19:12.204Z,94403.00
2023-04-16T05:20:11.955Z,94405.00
2023-04-16T05:21:11.937Z,94407.00
2023-04-16T05:22:11.926Z,94407.00
2023-04-16T05:23:11.963Z,94409.00
2023-04-16T05:24:14.329Z,94411.00
2023-04-16T05:25:11.908Z,94411.00
2023-04-16T05:26:11.917Z,94415.00
2023-04-16T05:27:11.910Z,94413.00
2023-04-16T05:28:11.894Z,94415.00
2023-04-16T05:29:12.025Z,94415.00
2023-04-16T05:30:11.884Z,94420.00
2023-04-16T05:31:11.907Z,94418.00
2023-04-16T05:32:11.876Z,94424.00
2023-04-16T05:33:11.856Z,94424.00
2023-04-16T05:34:11.877Z,94424.00
2023-04-16T05:35:11.858Z,94426.00
2023-04-16T05:36:11.844Z,94430.00
2023-04-16T05:37:11.837Z,94430.00
2023-04-16T05:38:11.840Z,94432.00
2023-04-16T05:39:11.912Z,94432.00
2023-04-16T05:40:11.820Z,94432.00
2023-04-16T05:41:11.794Z,94436.00
2023-04-16T05:42:11.804Z,94434.00
2023-04-16T05:43:11.796Z,94436.00
2023-04-16T05:44:11.807Z,94436.00
2023-04-16T05:45:11.770Z,94438.00
2023-04-16T05:46:11.802Z,94440.00
2023-04-16T05:47:11.760Z,94442.00
2023-04-16T05:48:11.774Z,94440.00
2023-04-16T05:49:11.901Z,94438.00
2023-04-16T05:50:11.766Z,94440.00
2023-04-16T05:51:11.742Z,94440.00
2023-04-16T05:52:11.734Z,94442.00
2023-04-16T05:53:11.725Z,94444.00
2023-04-16T05:54:11.710Z,94442.00
2023-04-16T05:55:11.721Z,94444.00
2023-04-16T05:56:11.721Z,94444.00
2023-04-16T05:57:11.710Z,94440.00
2023-04-16T05:58:11.697Z,94444.00
2023-04-16T05:59:11.964Z,94442.00
2023-04-16T06:00:11.737Z,94442.00
2023-04-16T06:01:11.679Z,94446.00
2023-04-16T06:02:11.752Z,94446.00
2023-04-16T06:03:11.823Z,94450.00
2023-04-16T06:04:11.814Z,94450.00
2023-04-16T06:05:11.657Z,94454.00
2023-04-16T06:06:11.647Z,94456.00
2023-04-16T06:07:11.639Z,94456.00
2023-04-16T06:08:11.663Z,94456.00
2023-04-16T06:09:11.850Z,94460.00
2023-04-16T06:10:11.636Z,94458.00
2023-04-16T06:11:11.622Z,94462.00
2023-04-16T06:12:11.613Z,94463.00
2023-04-16T06:13:11.613Z,94462.00
2023-04-16T06:14:11.619Z,94462.00
2023-04-16T06:15:11.603Z,94463.00
2023-04-16T06:16:11.643Z,94463.00
2023-04-16T06:17:11.589Z,94465.00
2023-04-16T06:18:11.669Z,94465.00
2023-04-16T06:19:11.790Z,94463.00
2023-04-16T06:20:11.551Z,94465.00
2023-04-16T06:21:11.563Z,94465.00
2023-04-16T06:22:11.536Z,94467.00
2023-04-16T06:23:11.574Z,94467.00
2023-04-16T06:24:11.532Z,94467.00
2023-04-16T06:25:11.540Z,94469.00
2023-04-16T06:26:11.539Z,94465.00
2023-04-16T06:27:11.534Z,94467.00
2023-04-16T06:28:11.506Z,94465.00
2023-04-16T06:29:11.638Z,94467.00
2023-04-16T06:30:11.521Z,94465.00
2023-04-16T06:31:11.520Z,94465.00
2023-04-16T06:32:11.499Z,94467.00
2023-04-16T06:33:11.496Z,94467.00
2023-04-16T06:34:11.483Z,94467.00
2023-04-16T06:35:11.481Z,94469.00
2023-04-16T06:36:11.649Z,94471.00
2023-04-16T06:37:11.468Z,94469.00
2023-04-16T06:38:11.446Z,94473.00
2023-04-16T06:39:11.608Z,94473.00
2023-04-16T06:40:11.438Z,94473.00
2023-04-16T06:41:11.433Z,94473.00
2023-04-16T06:42:11.419Z,94473.00
2023-04-16T06:43:11.423Z,94473.00
2023-04-16T06:44:11.427Z,94475.00
2023-04-16T06:45:11.413Z,94473.00
2023-04-16T06:46:11.405Z,94473.00
2023-04-16T06:47:11.556Z,94473.00
2023-04-16T06:48:11.400Z,94471.00
2023-04-16T06:49:11.567Z,94473.00
2023-04-16T06:50:11.384Z,94473.00
2023-04-16T06:51:11.363Z,94471.00
2023-04-16T06:52:11.357Z,94473.00
2023-04-16T06:53:11.349Z,94473.00
2023-04-16T06:54:11.347Z,94475.00
2023-04-16T06:55:11.369Z,94471.00
2023-04-16T06:56:11.350Z,94473.00
2023-04-16T06:57:11.346Z,94473.00
2023-04-16T06:58:11.344Z,94475.00
2023-04-16T06:59:11.442Z,94475.00
2023-04-16T07:00:11.318Z,94475.00
2023-04-16T07:01:11.387Z,94475.00
2023-04-16T07:02:11.404Z,94473.00
2023-04-16T07:03:11.451Z,94473.00
2023-04-16T07:04:11.413Z,94475.00
2023-04-16T07:05:11.297Z,94473.00
2023-04-16T07:06:11.273Z,94471.00
2023-04-16T07:07:11.303Z,94471.00
2023-04-16T07:08:11.291Z,94469.00
2023-04-16T07:09:11.504Z,94473.00
2023-04-16T07:10:11.251Z,94473.00
2023-04-16T07:11:11.260Z,94471.00
2023-04-16T07:12:11.256Z,94473.00
2023-04-16T07:13:11.251Z,94473.00
2023-04-16T07:14:11.235Z,94473.00
2023-04-16T07:15:11.243Z,94473.00
2023-04-16T07:16:11.238Z,94473.00
2023-04-16T07:17:11.212Z,94471.00
2023-04-16T07:18:11.273Z,94475.00
2023-04-16T07:19:11.510Z,94473.00
2023-04-16T07:20:11.208Z,94471.00
2023-04-16T07:21:11.174Z,94469.00
2023-04-16T07:22:11.182Z,94469.00
2023-04-16T07:23:11.169Z,94469.00
2023-04-16T07:24:11.172Z,94471.00
2023-04-16T07:25:11.172Z,94471.00
2023-04-16T07:26:11.156Z,94469.00
2023-04-16T07:27:11.157Z,94471.00
2023-04-16T07:28:11.168Z,94467.00
2023-04-16T07:29:11.377Z,94473.00
2023-04-16T07:30:11.121Z,94473.00
2023-04-16T07:31:11.113Z,94473.00
2023-04-16T07:32:13.328Z,94475.00
2023-04-16T07:33:11.191Z,94475.00
2023-04-16T07:34:11.103Z,94477.00
2023-04-16T07:35:11.136Z,94479.00
2023-04-16T07:36:11.093Z,94479.00
2023-04-16T07:37:11.130Z,94479.00
2023-04-16T07:38:11.092Z,94483.00
2023-04-16T07:39:11.367Z,94483.00
2023-04-16T07:40:11.091Z,94485.00
2023-04-16T07:41:11.092Z,94485.00
2023-04-16T07:42:11.074Z,94487.00
2023-04-16T07:43:11.070Z,94491.00
2023-04-16T07:44:11.062Z,94489.00
2023-04-16T07:45:11.037Z,94489.00
2023-04-16T07:46:11.062Z,94493.00
2023-04-16T07:47:11.026Z,94491.00
2023-04-16T07:48:11.056Z,94491.00
2023-04-16T07:49:11.156Z,94491.00
2023-04-16T07:50:11.029Z,94491.00
2023-04-16T07:51:11.002Z,94495.00
2023-04-16T07:52:11.000Z,94495.00
2023-04-16T07:53:10.992Z,94493.00
2023-04-16T07:54:11.028Z,94493.00
2023-04-16T07:55:10.995Z,94495.00
2023-04-16T07:56:10.981Z,94495.00
2023-04-16T07:57:10.972Z,94495.00
2023-04-16T07:58:10.996Z,94493.00
2023-04-16T07:59:21.892Z,94495.00
2023-04-16T08:00:11.984Z,94495.00
2023-04-16T08:01:10.945Z,94495.00
2023-04-16T08:02:11.018Z,94495.00
2023-04-16T08:03:11.168Z,94495.00
2023-04-16T08:04:11.050Z,94497.00
2023-04-16T08:05:11.041Z,94497.00
2023-04-16T08:06:10.946Z,94495.00
2023-04-16T08:07:10.917Z,94495.00
2023-04-16T08:08:10.895Z,94495.00
2023-04-16T08:09:11.204Z,94495.00
2023-04-16T08:10:11.026Z,94495.00
2023-04-16T08:11:11.080Z,94499.00
2023-04-16T08:12:11.143Z,94501.00
2023-04-16T08:13:11.221Z,94499.00
2023-04-16T08:14:11.244Z,94499.00
2023-04-16T08:15:11.321Z,94499.00
2023-04-16T08:16:11.398Z,94499.00
2023-04-16T08:17:11.428Z,94499.00
2023-04-16T08:18:11.515Z,94501.00
2023-04-16T08:19:11.683Z,94499.00
2023-04-16T08:20:15.014Z,94503.00
2023-04-16T08:21:12.618Z,94503.00
2023-04-16T08:22:11.592Z,94503.00
2023-04-16T08:23:11.586Z,94507.00
2023-04-16T08:24:11.610Z,94509.00
2023-04-16T08:25:11.598Z,94509.00
2023-04-16T08:26:11.596Z,94511.00
2023-04-16T08:27:18.496Z,94513.00
2023-04-16T08:28:12.589Z,94511.00
2023-04-16T08:29:11.866Z,94515.00
2023-04-16T08:30:11.549Z,94515.00
2023-04-16T08:31:11.600Z,94517.00
2023-04-16T08:32:11.553Z,94517.00
2023-04-16T08:33:11.606Z,94518.00
2023-04-16T08:34:11.558Z,94518.00
2023-04-16T08:35:11.534Z,94520.00
2023-04-16T08:36:11.520Z,94518.00
2023-04-16T08:37:11.578Z,94522.00
2023-04-16T08:38:11.633Z,94524.00
2023-04-16T08:39:11.857Z,94522.00
2023-04-16T08:40:11.750Z,94524.00
2023-04-16T08:41:11.798Z,94526.00
2023-04-16T08:42:11.879Z,94524.00
2023-04-16T08:43:11.956Z,94524.00
2023-04-16T08:44:11.989Z,94524.00
2023-04-16T08:45:12.049Z,94522.00
2023-04-16T08:46:12.171Z,94522.00
2023-04-16T08:47:12.190Z,94530.00
2023-04-16T08:48:12.246Z,94528.00
2023-04-16T08:49:12.457Z,94532.00
2023-04-16T08:50:12.351Z,94532.00
2023-04-16T08:51:12.416Z,94530.00
2023-04-16T08:52:12.470Z,94530.00
2023-04-16T08:53:12.586Z,94532.00
2023-04-16T08:54:12.585Z,94532.00
2023-04-16T08:55:12.662Z,94532.00
2023-04-16T08:56:12.713Z,94532.00
2023-04-16T08:57:12.763Z,94534.00
2023-04-16T08:58:12.834Z,94534.00
2023-04-16T08:59:12.887Z,94534.00
2023-04-16T09:00:12.954Z,94538.00
2023-04-16T09:01:13.001Z,94540.00
2023-04-16T09:02:13.143Z,94538.00
2023-04-16T09:03:13.368Z,94540.00
2023-04-16T09:04:13.346Z,94540.00
2023-04-16T09:05:13.242Z,94540.00
2023-04-16T09:06:13.332Z,94540.00
2023-04-16T09:07:13.370Z,94544.00
2023-04-16T09:08:13.463Z,94542.00
2023-04-16T09:09:13.509Z,94544.00
2023-04-16T09:10:13.574Z,94546.00
2023-04-16T09:11:13.631Z,94546.00
2023-04-16T09:12:13.690Z,94548.00
2023-04-16T09:13:13.771Z,94548.00
2023-04-16T09:14:13.806Z,94550.00
2023-04-16T09:15:13.905Z,94550.00
2023-04-16T09:16:13.993Z,94550.00
2023-04-16T09:17:13.956Z,94550.00
2023-04-16T09:18:14.014Z,94552.00
2023-04-16T09:19:14.084Z,94550.00
2023-04-16T09:20:14.147Z,94548.00
2023-04-16T09:21:14.195Z,94548.00
2023-04-16T09:22:14.262Z,94550.00
2023-04-16T09:23:14.330Z,94552.00
2023-04-16T09:24:14.358Z,94556.00
2023-04-16T09:25:14.418Z,94556.00
2023-04-16T09:26:14.497Z,94554.00
2023-04-16T09:27:14.553Z,94554.00
2023-04-16T09:28:14.635Z,94554.00
2023-04-16T09:29:14.665Z,94552.00
2023-04-16T09:30:14.724Z,94552.00
2023-04-16T09:31:14.777Z,94550.00
2023-04-16T09:32:14.969Z,94550.00
2023-04-16T09:33:14.926Z,94552.00
2023-04-16T09:34:14.957Z,94550.00
2023-04-16T09:35:15.016Z,94550.00
2023-04-16T09:36:15.062Z,94550.00
2023-04-16T09:37:15.132Z,94548.00
2023-04-16T09:38:15.185Z,94550.00
2023-04-16T09:39:15.245Z,94550.00
2023-04-16T09:40:15.290Z,94548.00
2023-04-16T09:41:15.362Z,94548.00
2023-04-16T09:42:15.409Z,94546.00
2023-04-16T09:43:15.499Z,94548.00
2023-04-16T09:44:15.553Z,94546.00
2023-04-16T09:45:15.604Z,94546.00
2023-04-16T09:46:15.695Z,94550.00
2023-04-16T09:47:15.707Z,94546.00
2023-04-16T09:48:15.783Z,94550.00
2023-04-16T09:49:15.846Z,94550.00
2023-04-16T09:50:17.800Z,94548.00
2023-04-16T09:51:16.002Z,94548.00
2023-04-16T09:52:16.029Z,94546.00
2023-04-16T09:53:16.078Z,94550.00
2023-04-16T09:54:16.134Z,94548.00
2023-04-16T09:55:16.206Z,94546.00
2023-04-16T09:56:16.244Z,94546.00
2023-04-16T09:57:16.310Z,94548.00
2023-04-16T09:58:16.375Z,94546.00
2023-04-16T09:59:16.401Z,94546.00
2023-04-16T10:00:16.445Z,94544.00
2023-04-16T10:01:16.522Z,94548.00
2023-04-16T10:02:16.719Z,94546.00
2023-04-16T10:03:16.660Z,94544.00
2023-04-16T10:04:16.890Z,94548.00
2023-04-16T10:05:16.721Z,94548.00
2023-04-16T10:06:16.734Z,94548.00
2023-04-16T10:07:16.762Z,94548.00
2023-04-16T10:08:16.834Z,94548.00
2023-04-16T10:09:16.852Z,94546.00
2023-04-16T10:10:16.877Z,94548.00
2023-04-16T10:11:16.935Z,94546.00
2023-04-16T10:12:16.977Z,94546.00
2023-04-16T10:13:17.043Z,94542.00
2023-04-16T10:14:17.039Z,94542.00
2023-04-16T10:15:17.104Z,94540.00
2023-04-16T10:16:17.183Z,94540.00
2023-04-16T10:17:17.195Z,94538.00
2023-04-16T10:18:17.231Z,94542.00
2023-04-16T10:19:17.258Z,94540.00
2023-04-16T10:20:17.366Z,94538.00
2023-04-16T10:21:17.328Z,94538.00
2023-04-16T10:22:17.369Z,94534.00
2023-04-16T10:23:17.429Z,94534.00
2023-04-16T10:24:17.432Z,94532.00
2023-04-16T10:25:17.491Z,94536.00
2023-04-16T10:26:17.528Z,94536.00
2023-04-16T10:27:17.572Z,94534.00
2023-04-16T10:28:17.639Z,94538.00
2023-04-16T10:29:17.615Z,94534.00
2023-04-16T10:30:17.694Z,94534.00
2023-04-16T10:31:17.740Z,94532.00
2023-04-16T10:32:17.793Z,94534.00
2023-04-16T10:33:17.773Z,94534.00
2023-04-16T10:34:17.796Z,94530.00
2023-04-16T10:35:17.838Z,94530.00
2023-04-16T10:36:17.884Z,94532.00
2023-04-16T10:37:17.931Z,94530.00
2023-04-16T10:38:17.973Z,94530.00
2023-04-16T10:39:18.087Z,94530.00
2023-04-16T10:40:18.117Z,94532.00
2023-04-16T10:41:18.046Z,94534.00
2023-04-16T10:42:18.097Z,94534.00
2023-04-16T10:43:18.153Z,94530.00
2023-04-16T10:44:18.193Z,94532.00
2023-04-16T10:45:18.191Z,94534.00
2023-04-16T10:46:18.268Z,94534.00
2023-04-16T10:47:18.296Z,94532.00
2023-04-16T10:48:18.338Z,94534.00
2023-04-16T10:49:18.335Z,94528.00
2023-04-16T10:50:18.371Z,94532.00
2023-04-16T10:51:18.391Z,94532.00
2023-04-16T10:52:18.438Z,94532.00
2023-04-16T10:53:18.486Z,94532.00
2023-04-16T10:54:18.509Z,94532.00
2023-04-16T10:55:18.550Z,94532.00
2023-04-16T10:56:18.571Z,94532.00
2023-04-16T10:57:18.624Z,94534.00
2023-04-16T10:58:18.680Z,94532.00
2023-04-16T10:59:18.686Z,94534.00
2023-04-16T11:00:18.712Z,94534.00
2023-04-16T11:01:18.752Z,94532.00
2023-04-16T11:02:19.085Z,94532.00
2023-04-16T11:03:19.139Z,94530.00
2023-04-16T11:04:18.944Z,94532.00
2023-04-16T11:05:18.877Z,94530.00
2023-04-16T11:06:18.910Z,94528.00
2023-04-16T11:07:19.021Z,94528.00
2023-04-16T11:08:18.976Z,94528.00
2023-04-16T11:09:18.988Z,94528.00
2023-04-16T11:10:19.037Z,94528.00
2023-04-16T11:11:19.073Z,94528.00
2023-04-16T11:12:19.114Z,94528.00
2023-04-16T11:13:19.164Z,94526.00
2023-04-16T11:14:19.147Z,94528.00
2023-04-16T11:15:19.184Z,94526.00
2023-04-16T11:16:19.265Z,94526.00
2023-04-16T11:17:19.263Z,94528.00
2023-04-16T11:18:19.295Z,94526.00
2023-04-16T11:19:19.309Z,94530.00
2023-04-16T11:20:20.726Z,94526.00
2023-04-16T11:21:19.407Z,94526.00
2023-04-16T11:22:19.418Z,94528.00
2023-04-16T11:23:19.444Z,94528.00
2023-04-16T11:24:19.465Z,94528.00
2023-04-16T11:25:19.496Z,94528.00
2023-04-16T11:26:19.538Z,94528.00
2023-04-16T11:27:19.552Z,94532.00
2023-04-16T11:28:19.579Z,94530.00
2023-04-16T11:29:19.621Z,94530.00
2023-04-16T11:30:19.648Z,94532.00
2023-04-16T11:31:19.701Z,94532.00
2023-04-16T11:32:19.738Z,94530.00
2023-04-16T11:33:19.753Z,94534.00
2023-04-16T11:34:19.787Z,94530.00
2023-04-16T11:35:19.813Z,94532.00
2023-04-16T11:36:19.821Z,94532.00
2023-04-16T11:37:19.850Z,94534.00
2023-04-16T11:38:19.897Z,94534.00
2023-04-16T11:39:19.936Z,94534.00
2023-04-16T11:40:19.963Z,94534.00
2023-04-16T11:41:20.002Z,94536.00
2023-04-16T11:42:20.033Z,94536.00
2023-04-16T11:43:20.056Z,94536.00
2023-04-16T11:44:20.096Z,94538.00